createdAt,value
2023-02-17T00:04:55.283Z,101572.88
2023-02-17T00:09:57.927Z,101566.28
2023-02-17T00:14:59.440Z,101565.34
2023-02-17T00:20:01.160Z,101563.81
2023-02-17T00:25:02.838Z,101559.41
2023-02-17T00:30:05.072Z,101555.94
2023-02-17T00:35:06.899Z,101547.72
2023-02-17T00:40:08.734Z,101550.50
2023-02-17T00:45:10.312Z,101542.81
2023-02-17T00:50:11.848Z,101545.59
2023-02-17T00:55:13.400Z,101548.06
2023-02-17T01:00:15.565Z,101550.03
2023-02-17T01:05:17.173Z,101548.06
2023-02-17T01:10:21.314Z,101550.97
2023-02-17T01:15:22.831Z,101539.09
2023-02-17T01:20:24.439Z,101519.09
2023-02-17T01:25:27.275Z,101531.41
2023-02-17T01:30:30.771Z,101512.66
2023-02-17T01:35:34.391Z,101502.16
2023-02-17T01:40:36.119Z,101505.59
2023-02-17T01:45:45.308Z,101490.75
2023-02-17T01:50:53.896Z,101491.63
2023-02-17T01:55:56.311Z,101489.69
2023-02-17T02:01:01.637Z,101489.88
2023-02-17T02:06:08.173Z,101477.56
2023-02-17T02:11:09.796Z,101473.00
2023-02-17T02:16:27.268Z,101472.47
2023-02-17T02:21:37.855Z,101466.03
2023-02-17T02:27:21.896Z,101466.19
2023-02-17T02:32:36.327Z,101467.78
2023-02-17T02:37:59.889Z,101465.41
2023-02-17T02:43:03.861Z,101458.19
2023-02-17T02:48:05.498Z,101459.22
2023-02-17T02:53:25.672Z,101444.69
2023-02-17T02:58:41.874Z,101453.09
2023-02-17T03:04:15.392Z,101441.25
2023-02-17T03:09:27.480Z,101431.25
2023-02-17T03:14:36.601Z,101427.81
2023-02-17T03:19:38.527Z,101426.97
2023-02-17T03:24:40.220Z,101429.13
2023-02-17T03:29:43.575Z,101425.59
2023-02-17T03:34:46.018Z,101425.13
2023-02-17T03:39:47.620Z,101407.81
2023-02-17T03:44:49.171Z,101406.19
2023-02-17T03:49:51.749Z,101417.03
2023-02-17T03:54:53.270Z,101418.22
2023-02-17T03:59:54.861Z,101419.84
2023-02-17T04:04:56.425Z,101427.50
2023-02-17T04:09:58.053Z,101416.75
2023-02-17T04:14:59.590Z,101414.75
2023-02-17T04:20:01.191Z,101422.50
2023-02-17T04:25:02.824Z,101423.88
2023-02-17T04:30:05.506Z,101428.06
2023-02-17T04:35:07.576Z,101418.81
2023-02-17T04:40:09.908Z,101418.63
2023-02-17T04:45:12.534Z,101422.25
2023-02-17T04:50:14.489Z,101430.78
2023-02-17T04:55:16.057Z,101420.81
2023-02-17T05:00:17.881Z,101413.91
2023-02-17T05:05:19.470Z,101411.13
2023-02-17T05:10:23.074Z,101417.03
2023-02-17T05:15:27.476Z,101425.59
2023-02-17T05:20:29.257Z,101428.22
2023-02-17T05:25:31.269Z,101417.19
2023-02-17T05:30:32.875Z,101421.66
2023-02-17T05:35:35.863Z,101422.22
2023-02-17T05:40:37.423Z,101421.66
2023-02-17T05:45:38.956Z,101418.44
2023-02-17T05:50:40.496Z,101400.00
2023-02-17T05:55:42.069Z,101398.63
2023-02-17T06:00:44.676Z,101395.75
2023-02-17T06:05:46.565Z,101403.69
2023-02-17T06:10:48.081Z,101405.72
2023-02-17T06:15:49.664Z,101385.78
2023-02-17T06:20:51.250Z,101390.06
2023-02-17T06:25:53.472Z,101397.84
2023-02-17T06:30:55.030Z,101409.22
2023-02-17T06:35:56.698Z,101399.69
2023-02-17T06:40:58.287Z,101403.31
2023-02-17T06:45:59.893Z,101397.03
2023-02-17T06:51:01.592Z,101396.59
2023-02-17T06:56:03.391Z,101399.03
2023-02-17T07:01:05.601Z,101407.38
2023-02-17T07:06:07.358Z,101413.03
2023-02-17T07:11:11.585Z,101411.72
2023-02-17T07:16:14.609Z,101412.09
2023-02-17T07:21:16.290Z,101401.78
2023-02-17T07:26:17.914Z,101393.69
2023-02-17T07:31:19.573Z,101382.81
2023-02-17T07:36:21.270Z,101396.69
2023-02-17T07:41:24.476Z,101404.66
2023-02-17T07:46:27.041Z,101397.22
2023-02-17T07:51:28.588Z,101400.31
2023-02-17T07:56:30.141Z,101391.97
2023-02-17T08:01:31.722Z,101389.59
2023-02-17T08:06:33.641Z,101400.00
2023-02-17T08:11:36.059Z,101405.97
2023-02-17T08:16:37.624Z,101389.47
2023-02-17T08:21:39.402Z,101395.44
2023-02-17T08:26:40.909Z,101392.59
2023-02-17T08:31:42.690Z,101404.25
2023-02-17T08:36:44.301Z,101413.16
2023-02-17T08:41:46.462Z,101422.00
2023-02-17T08:46:49.695Z,101425.81
2023-02-17T08:51:51.959Z,101426.44
2023-02-17T08:56:53.614Z,101424.75
2023-02-17T09:01:55.319Z,101419.63
2023-02-17T09:06:57.048Z,101413.56
2023-02-17T09:11:58.695Z,101413.38
2023-02-17T09:17:00.306Z,101415.28
2023-02-17T09:22:01.852Z,101410.88
2023-02-17T09:27:03.465Z,101403.00
2023-02-17T09:32:09.352Z,101419.34
2023-02-17T09:37:12.400Z,101420.22
2023-02-17T09:42:20.375Z,101420.69
2023-02-17T09:47:26.714Z,101413.97
2023-02-17T09:52:51.448Z,101405.88
2023-02-17T09:58:20.358Z,101420.44
2023-02-17T10:03:29.058Z,101429.53
2023-02-17T10:08:39.332Z,101438.81
2023-02-17T10:13:44.638Z,101428.28
2023-02-17T10:18:53.587Z,101437.72
2023-02-17T10:23:55.213Z,101449.88
2023-02-17T10:29:07.128Z,101439.34
2023-02-17T10:34:35.476Z,101437.34
2023-02-17T10:39:47.006Z,101446.19
2023-02-17T10:44:51.013Z,101437.88
2023-02-17T10:49:55.779Z,101429.22
2023-02-17T10:55:06.387Z,101422.13
2023-02-17T11:00:17.780Z,101421.09
2023-02-17T11:05:24.130Z,101424.03
2023-02-17T11:10:40.954Z,101428.66
2023-02-17T11:15:47.320Z,101425.78
2023-02-17T11:20:48.922Z,101429.22
2023-02-17T11:26:02.729Z,101392.47
2023-02-17T11:31:04.742Z,101385.72
2023-02-17T11:36:08.459Z,101391.63
2023-02-17T11:41:10.718Z,101386.63
2023-02-17T11:46:33.982Z,101390.97
2023-02-17T11:51:53.825Z,101393.72
2023-02-17T11:57:25.894Z,101384.16
2023-02-17T12:03:25.852Z,101374.44
2023-02-17T12:08:53.567Z,101360.63
2023-02-17T12:14:10.104Z,101350.06
2023-02-17T12:19:25.534Z,101354.69
2023-02-17T12:24:38.684Z,101359.19
2023-02-17T12:30:05.249Z,101368.31
2023-02-17T12:35:23.811Z,101343.81
2023-02-17T12:40:34.056Z,101348.22
2023-02-17T12:45:43.085Z,101343.59
2023-02-17T12:51:05.731Z,101335.19
2023-02-17T12:56:33.681Z,101334.16
2023-02-17T13:01:38.229Z,101321.59
2023-02-17T13:06:44.619Z,101307.66
2023-02-17T13:11:46.234Z,101312.59
2023-02-17T13:16:47.815Z,101305.50
2023-02-17T13:21:55.345Z,101305.78
2023-02-17T13:26:56.896Z,101316.97
2023-02-17T13:32:00.034Z,101313.47
2023-02-17T13:37:16.151Z,101307.16
2023-02-17T13:42:36.083Z,101293.72
2023-02-17T13:47:38.978Z,101295.75
2023-02-17T13:52:43.137Z,101320.81
2023-02-17T13:57:44.928Z,101322.44
2023-02-17T14:02:50.180Z,101332.00
2023-02-17T14:07:56.956Z,101334.28
2023-02-17T14:12:58.859Z,101332.47
2023-02-17T14:18:00.610Z,101329.75
2023-02-17T14:23:13.649Z,101337.53
2023-02-17T14:28:24.161Z,101345.50
2023-02-17T14:33:26.080Z,101355.22
2023-02-17T14:38:41.614Z,101373.06
2023-02-17T14:43:43.144Z,101353.19
2023-02-17T14:48:45.648Z,101353.94
2023-02-17T14:53:48.458Z,101378.97
2023-02-17T14:58:50.336Z,101354.25
2023-02-17T15:03:53.380Z,101384.19
2023-02-17T15:08:54.946Z,101381.69
2023-02-17T15:13:56.547Z,101384.66
2023-02-17T15:18:58.162Z,101391.91
2023-02-17T15:24:01.452Z,101396.88
2023-02-17T15:29:03.151Z,101391.00
2023-02-17T15:34:11.581Z,101407.44
2023-02-17T15:39:19.868Z,101416.78
2023-02-17T15:44:25.970Z,101427.03
2023-02-17T15:49:27.522Z,101439.84
2023-02-17T15:54:29.018Z,101442.06
2023-02-17T15:59:30.598Z,101444.50
2023-02-17T16:04:32.577Z,101455.47
2023-02-17T16:09:34.221Z,101460.78
2023-02-17T16:14:37.396Z,101475.94
2023-02-17T16:19:38.972Z,101484.31
2023-02-17T16:24:40.663Z,101512.06
2023-02-17T16:29:42.940Z,101507.34
2023-02-17T16:34:44.588Z,101498.31
2023-02-17T16:39:46.382Z,101508.16
2023-02-17T16:44:48.724Z,101532.81
2023-02-17T16:49:50.362Z,101547.72
2023-02-17T16:54:52.741Z,101558.28
2023-02-17T16:59:54.328Z,101563.25
2023-02-17T17:04:55.864Z,101578.72
2023-02-17T17:10:15.372Z,101590.19
2023-02-17T17:15:18.925Z,101599.53
2023-02-17T17:20:23.298Z,101593.56
2023-02-17T17:25:25.886Z,101594.28
2023-02-17T17:30:32.761Z,101600.75
2023-02-17T17:35:36.208Z,101595.31
2023-02-17T17:40:37.782Z,101592.91
2023-02-17T17:45:39.396Z,101608.78
2023-02-17T17:50:41.338Z,101617.81
2023-02-17T17:55:42.922Z,101611.72
2023-02-17T18:00:44.480Z,101630.47
2023-02-17T18:05:46.150Z,101637.28
2023-02-17T18:10:47.757Z,101636.28
2023-02-17T18:15:49.569Z,101641.56
2023-02-17T18:20:51.478Z,101647.19
2023-02-17T18:25:53.154Z,101657.56
2023-02-17T18:30:54.803Z,101656.13
2023-02-17T18:35:56.406Z,101653.66
2023-02-17T18:40:57.946Z,101671.28
2023-02-17T18:45:59.682Z,101675.31
2023-02-17T18:51:06.657Z,101692.00
2023-02-17T18:56:17.497Z,101694.47
2023-02-17T19:01:24.653Z,101695.75
2023-02-17T19:06:30.569Z,101715.47
2023-02-17T19:11:34.218Z,101715.13
2023-02-17T19:16:36.463Z,101713.63
2023-02-17T19:21:38.210Z,101728.56
2023-02-17T19:26:39.806Z,101739.28
2023-02-17T19:31:41.457Z,101739.84
2023-02-17T19:36:43.062Z,101739.72
2023-02-17T19:41:44.760Z,101741.09
2023-02-17T19:46:46.296Z,101747.81
2023-02-17T19:51:47.891Z,101744.91
2023-02-17T19:56:49.446Z,101751.97
2023-02-17T20:01:51.136Z,101760.81
2023-02-17T20:06:52.883Z,101769.16
2023-02-17T20:11:54.382Z,101770.34
2023-02-17T20:16:55.884Z,101780.69
2023-02-17T20:21:57.429Z,101758.53
2023-02-17T20:26:59.224Z,101779.53
2023-02-17T20:32:00.885Z,101791.03
2023-02-17T20:37:02.683Z,101766.69
2023-02-17T20:42:05.243Z,101769.94
2023-02-17T20:47:06.961Z,101773.47
2023-02-17T20:52:08.466Z,101760.00
2023-02-17T20:57:13.278Z,101762.22
2023-02-17T21:02:14.864Z,101764.09
2023-02-17T21:07:17.428Z,101765.78
2023-02-17T21:12:18.968Z,101776.09
2023-02-17T21:17:20.472Z,101764.91
2023-02-17T21:22:21.994Z,101784.59
2023-02-17T21:27:23.565Z,101774.16
2023-02-17T21:32:26.012Z,101770.16
2023-02-17T21:37:27.664Z,101774.28
2023-02-17T21:42:29.236Z,101772.97
2023-02-17T21:47:33.583Z,101769.03
2023-02-17T21:52:35.165Z,101773.22
2023-02-17T21:57:36.706Z,101760.56
2023-02-17T22:02:38.332Z,101768.34
2023-02-17T22:07:39.950Z,101781.88
2023-02-17T22:12:41.612Z,101779.94
2023-02-17T22:17:43.124Z,101785.63
2023-02-17T22:22:44.834Z,101777.97
2023-02-17T22:27:46.690Z,101783.56
2023-02-17T22:32:48.260Z,101774.06
2023-02-17T22:37:49.807Z,101767.47
2023-02-17T22:42:51.464Z,101773.25
2023-02-17T22:47:53.028Z,101761.25
2023-02-17T22:52:54.610Z,101751.09
2023-02-17T22:57:56.130Z,101751.50
2023-02-17T23:02:57.721Z,101744.66
2023-02-17T23:07:59.274Z,101738.44
2023-02-17T23:13:00.815Z,101744.41
2023-02-17T23:18:02.343Z,101751.06
2023-02-17T23:23:03.909Z,101749.94
2023-02-17T23:28:05.525Z,101748.56
2023-02-17T23:33:07.403Z,101746.47
2023-02-17T23:38:09.004Z,101752.19
2023-02-17T23:43:10.570Z,101753.28
2023-02-17T23:48:12.453Z,101743.94
2023-02-17T23:53:13.982Z,101747.16
2023-02-17T23:58:15.525Z,101749.19
